createdAt,value
2022-09-03T00:00:15.359Z,18.68
2022-09-03T00:01:15.353Z,18.66
2022-09-03T00:02:15.307Z,18.65
2022-09-03T00:03:15.362Z,18.63
2022-09-03T00:04:15.293Z,18.62
2022-09-03T00:05:16.318Z,18.62
2022-09-03T00:06:15.304Z,18.62
2022-09-03T00:07:15.255Z,18.62
2022-09-03T00:08:15.306Z,18.62
2022-09-03T00:09:15.254Z,18.60
2022-09-03T00:10:15.682Z,18.58
2022-09-03T00:11:15.248Z,18.59
2022-09-03T00:12:15.217Z,18.56
2022-09-03T00:13:15.175Z,18.58
2022-09-03T00:14:15.193Z,18.56
2022-09-03T00:15:15.197Z,18.55
2022-09-03T00:16:15.204Z,18.56
2022-09-03T00:17:15.127Z,18.53
2022-09-03T00:18:15.158Z,18.53
2022-09-03T00:19:15.114Z,18.52
2022-09-03T00:20:15.100Z,18.50
2022-09-03T00:21:15.101Z,18.49
2022-09-03T00:22:15.094Z,18.47
2022-09-03T00:23:15.079Z,18.45
2022-09-03T00:24:15.205Z,18.45
2022-09-03T00:25:15.090Z,18.44
2022-09-03T00:26:15.043Z,18.43
2022-09-03T00:27:15.061Z,18.43
2022-09-03T00:28:15.065Z,18.41
2022-09-03T00:29:15.011Z,18.41
2022-09-03T00:30:17.397Z,18.40
2022-09-03T00:31:15.035Z,18.37
2022-09-03T00:32:15.004Z,18.34
2022-09-03T00:33:14.993Z,18.33
2022-09-03T00:34:14.988Z,18.31
2022-09-03T00:35:14.939Z,18.33
2022-09-03T00:36:14.960Z,18.31
2022-09-03T00:37:15.707Z,18.28
2022-09-03T00:38:14.968Z,18.26
2022-09-03T00:39:14.901Z,18.23
2022-09-03T00:40:14.934Z,18.23
2022-09-03T00:41:14.875Z,18.23
2022-09-03T00:42:14.878Z,18.25
2022-09-03T00:43:14.854Z,18.25
2022-09-03T00:44:14.840Z,18.25
2022-09-03T00:45:14.858Z,18.25
2022-09-03T00:46:14.855Z,18.23
2022-09-03T00:47:14.796Z,18.23
2022-09-03T00:48:17.568Z,18.22
2022-09-03T00:49:14.802Z,18.23
2022-09-03T00:50:14.795Z,18.23
2022-09-03T00:51:14.766Z,18.22
2022-09-03T00:52:14.792Z,18.22
2022-09-03T00:53:14.761Z,18.22
2022-09-03T00:54:14.723Z,18.22
2022-09-03T00:55:14.734Z,18.22
2022-09-03T00:56:14.717Z,18.23
2022-09-03T00:57:14.689Z,18.20
2022-09-03T00:58:14.832Z,18.20
2022-09-03T00:59:14.663Z,18.22
2022-09-03T01:00:14.652Z,18.22
2022-09-03T01:01:14.739Z,18.20
2022-09-03T01:02:14.743Z,18.20
2022-09-03T01:03:14.622Z,18.20
2022-09-03T01:04:14.640Z,18.19
2022-09-03T01:05:14.611Z,18.19
2022-09-03T01:06:14.608Z,18.20
2022-09-03T01:07:14.587Z,18.20
2022-09-03T01:08:14.620Z,18.18
2022-09-03T01:09:14.619Z,18.16
2022-09-03T01:10:14.562Z,18.13
2022-09-03T01:11:14.534Z,18.11
2022-09-03T01:12:14.531Z,18.10
2022-09-03T01:13:14.535Z,18.08
2022-09-03T01:14:14.514Z,18.07
2022-09-03T01:15:14.509Z,18.05
2022-09-03T01:16:14.594Z,18.03
2022-09-03T01:17:14.524Z,18.01
2022-09-03T01:18:14.467Z,18.00
2022-09-03T01:19:14.450Z,17.95
2022-09-03T01:20:14.441Z,17.95
2022-09-03T01:21:14.461Z,17.94
2022-09-03T01:22:14.445Z,17.92
2022-09-03T01:23:14.393Z,17.90
2022-09-03T01:24:14.417Z,17.89
2022-09-03T01:25:14.369Z,17.86
2022-09-03T01:26:14.371Z,17.86
2022-09-03T01:27:14.386Z,17.83
2022-09-03T01:28:14.374Z,17.80
2022-09-03T01:29:14.360Z,17.79
2022-09-03T01:30:14.323Z,17.78
2022-09-03T01:31:14.383Z,17.76
2022-09-03T01:32:14.315Z,17.76
2022-09-03T01:33:14.311Z,17.76
2022-09-03T01:34:14.330Z,17.74
2022-09-03T01:35:14.287Z,17.74
2022-09-03T01:36:14.292Z,17.74
2022-09-03T01:37:14.242Z,17.74
2022-09-03T01:38:14.261Z,17.72
2022-09-03T01:39:15.234Z,17.71
2022-09-03T01:40:14.214Z,17.68
2022-09-03T01:41:14.259Z,17.67
2022-09-03T01:42:14.184Z,17.67
2022-09-03T01:43:14.180Z,17.65
2022-09-03T01:44:14.225Z,17.65
2022-09-03T01:45:14.176Z,17.64
2022-09-03T01:46:15.318Z,17.60
2022-09-03T01:47:14.159Z,17.60
2022-09-03T01:48:15.115Z,17.59
2022-09-03T01:49:14.109Z,17.59
2022-09-03T01:50:14.153Z,17.56
2022-09-03T01:51:14.116Z,17.54
2022-09-03T01:52:14.079Z,17.49
2022-09-03T01:53:14.241Z,17.46
2022-09-03T01:54:18.158Z,17.48
2022-09-03T01:55:15.038Z,17.46
2022-09-03T01:56:14.043Z,17.45
2022-09-03T01:57:34.962Z,17.44
2022-09-03T01:58:15.075Z,17.44
2022-09-03T01:59:13.993Z,17.39
2022-09-03T02:00:14.042Z,17.39
2022-09-03T02:01:14.056Z,17.38
2022-09-03T02:02:14.055Z,17.36
2022-09-03T02:03:13.958Z,17.31
2022-09-03T02:04:13.956Z,17.29
2022-09-03T02:05:13.923Z,17.27
2022-09-03T02:06:13.946Z,17.22
2022-09-03T02:07:13.901Z,17.19
2022-09-03T02:08:13.929Z,17.15
2022-09-03T02:09:14.864Z,17.15
2022-09-03T02:10:13.867Z,17.11
2022-09-03T02:11:13.866Z,17.09
2022-09-03T02:12:13.852Z,17.09
2022-09-03T02:13:13.829Z,17.09
2022-09-03T02:14:13.877Z,17.08
2022-09-03T02:15:13.817Z,17.04
2022-09-03T02:16:13.838Z,17.04
2022-09-03T02:17:13.794Z,16.99
2022-09-03T02:18:13.775Z,16.94
2022-09-03T02:19:13.820Z,16.91
2022-09-03T02:20:13.824Z,16.90
2022-09-03T02:21:13.740Z,16.87
2022-09-03T02:22:13.759Z,16.83
2022-09-03T02:23:13.718Z,16.79
2022-09-03T02:24:13.744Z,16.76
2022-09-03T02:25:13.708Z,16.72
2022-09-03T02:26:13.717Z,16.68
2022-09-03T02:27:13.677Z,16.66
2022-09-03T02:28:17.121Z,16.69
2022-09-03T02:29:13.657Z,16.68
2022-09-03T02:30:13.649Z,16.66
2022-09-03T02:31:13.726Z,16.61
2022-09-03T02:32:13.620Z,16.57
2022-09-03T02:33:13.609Z,16.54
2022-09-03T02:34:13.603Z,16.53
2022-09-03T02:35:13.585Z,16.51
2022-09-03T02:36:13.610Z,16.47
2022-09-03T02:37:13.600Z,16.46
2022-09-03T02:38:14.514Z,16.42
2022-09-03T02:39:13.539Z,16.42
2022-09-03T02:40:13.540Z,16.39
2022-09-03T02:41:13.521Z,16.39
2022-09-03T02:42:13.510Z,16.36
2022-09-03T02:43:13.556Z,16.36
2022-09-03T02:44:13.501Z,16.32
2022-09-03T02:45:13.491Z,16.28
2022-09-03T02:46:13.504Z,16.23
2022-09-03T02:47:13.452Z,16.17
2022-09-03T02:48:13.500Z,16.16
2022-09-03T02:49:13.435Z,16.15
2022-09-03T02:50:13.435Z,16.13
2022-09-03T02:51:14.063Z,16.12
2022-09-03T02:52:13.446Z,16.10
2022-09-03T02:53:13.441Z,16.05
2022-09-03T02:54:14.993Z,16.04
2022-09-03T02:55:13.387Z,16.04
2022-09-03T02:56:13.371Z,16.04
2022-09-03T02:57:13.342Z,16.02
2022-09-03T02:58:13.335Z,16.05
2022-09-03T02:59:13.341Z,16.08
2022-09-03T03:00:13.309Z,16.08
2022-09-03T03:01:23.602Z,16.05
2022-09-03T03:02:14.363Z,16.05
2022-09-03T03:03:13.289Z,16.05
2022-09-03T03:04:13.288Z,16.05
2022-09-03T03:05:13.251Z,16.02
2022-09-03T03:06:13.274Z,16.00
2022-09-03T03:07:13.246Z,15.94
2022-09-03T03:08:13.230Z,15.88
2022-09-03T03:09:13.205Z,15.84
2022-09-03T03:10:13.215Z,15.86
2022-09-03T03:11:13.278Z,15.84
2022-09-03T03:12:13.181Z,15.86
2022-09-03T03:13:13.180Z,15.84
2022-09-03T03:14:13.151Z,15.83
2022-09-03T03:15:13.133Z,15.80
2022-09-03T03:16:13.217Z,15.77
2022-09-03T03:17:13.119Z,15.73
2022-09-03T03:18:13.124Z,15.75
2022-09-03T03:19:13.092Z,15.73
2022-09-03T03:20:13.092Z,15.72
2022-09-03T03:21:13.086Z,15.70
2022-09-03T03:22:13.138Z,15.73
2022-09-03T03:23:13.045Z,15.73
2022-09-03T03:24:13.057Z,15.70
2022-09-03T03:25:13.033Z,15.65
2022-09-03T03:26:13.025Z,15.64
2022-09-03T03:27:13.023Z,15.61
2022-09-03T03:28:13.009Z,15.57
2022-09-03T03:29:13.014Z,15.55
2022-09-03T03:30:12.985Z,15.52
2022-09-03T03:31:12.974Z,15.51
2022-09-03T03:32:12.967Z,15.47
2022-09-03T03:33:12.977Z,15.43
2022-09-03T03:34:12.918Z,15.43
2022-09-03T03:35:12.948Z,15.37
2022-09-03T03:36:13.016Z,15.35
2022-09-03T03:37:12.967Z,15.31
2022-09-03T03:38:12.898Z,15.28
2022-09-03T03:39:12.859Z,15.27
2022-09-03T03:40:12.888Z,15.24
2022-09-03T03:41:12.880Z,15.25
2022-09-03T03:42:12.866Z,15.25
2022-09-03T03:43:12.819Z,15.27
2022-09-03T03:44:12.806Z,15.27
2022-09-03T03:45:12.804Z,15.28
2022-09-03T03:46:12.853Z,15.31
2022-09-03T03:47:12.786Z,15.29
2022-09-03T03:48:12.789Z,15.28
2022-09-03T03:49:12.750Z,15.25
2022-09-03T03:50:12.748Z,15.21
2022-09-03T03:51:12.760Z,15.15
2022-09-03T03:52:12.719Z,15.11
2022-09-03T03:53:12.743Z,15.11
2022-09-03T03:54:14.494Z,15.10
2022-09-03T03:55:15.873Z,15.11
2022-09-03T03:56:12.663Z,15.14
2022-09-03T03:57:12.683Z,15.11
2022-09-03T03:58:12.683Z,15.14
2022-09-03T03:59:12.653Z,15.14
2022-09-03T04:00:12.666Z,15.11
2022-09-03T04:01:12.654Z,15.10
2022-09-03T04:02:12.649Z,15.07
2022-09-03T04:03:12.586Z,15.03
2022-09-03T04:04:12.605Z,15.00
2022-09-03T04:05:12.576Z,14.97
2022-09-03T04:06:12.567Z,14.92
2022-09-03T04:07:12.562Z,14.88
2022-09-03T04:08:12.527Z,14.86
2022-09-03T04:09:12.581Z,14.81
2022-09-03T04:10:12.516Z,14.79
2022-09-03T04:11:12.514Z,14.78
2022-09-03T04:12:12.493Z,14.78
2022-09-03T04:13:12.481Z,14.77
2022-09-03T04:14:12.469Z,14.73
2022-09-03T04:15:12.490Z,14.73
2022-09-03T04:16:12.501Z,14.73
2022-09-03T04:17:12.440Z,14.73
2022-09-03T04:18:12.425Z,14.72
2022-09-03T04:19:12.442Z,14.73
2022-09-03T04:20:12.435Z,14.72
2022-09-03T04:21:12.392Z,14.70
2022-09-03T04:22:12.396Z,14.70
2022-09-03T04:23:12.592Z,14.68
2022-09-03T04:24:12.399Z,14.66
2022-09-03T04:25:12.344Z,14.66
2022-09-03T04:26:12.348Z,14.63
2022-09-03T04:27:12.377Z,14.65
2022-09-03T04:28:12.301Z,14.68
2022-09-03T04:29:12.307Z,14.69
2022-09-03T04:30:12.322Z,14.69
2022-09-03T04:31:12.410Z,14.69
2022-09-03T04:32:12.301Z,14.68
2022-09-03T04:33:16.346Z,14.68
2022-09-03T04:34:12.244Z,14.63
2022-09-03T04:35:12.277Z,14.65
2022-09-03T04:36:12.215Z,14.62
2022-09-03T04:37:12.215Z,14.60
2022-09-03T04:38:12.211Z,14.59
2022-09-03T04:39:12.186Z,14.58
2022-09-03T04:40:12.185Z,14.55
2022-09-03T04:41:12.230Z,14.53
2022-09-03T04:42:12.156Z,14.53
2022-09-03T04:43:12.157Z,14.53
2022-09-03T04:44:12.176Z,14.50
2022-09-03T04:45:12.144Z,14.45
2022-09-03T04:46:17.648Z,14.44
2022-09-03T04:47:13.172Z,14.41
2022-09-03T04:48:12.102Z,14.40
2022-09-03T04:49:12.090Z,14.36
2022-09-03T04:50:12.066Z,14.36
2022-09-03T04:51:12.058Z,14.36
2022-09-03T04:52:12.054Z,14.37
2022-09-03T04:53:12.079Z,14.37
2022-09-03T04:54:12.019Z,14.40
2022-09-03T04:55:12.020Z,14.37
2022-09-03T04:56:11.998Z,14.40
2022-09-03T04:57:11.980Z,14.40
2022-09-03T04:58:12.043Z,14.40
2022-09-03T04:59:12.005Z,14.40
2022-09-03T05:00:11.988Z,14.37
2022-09-03T05:01:11.985Z,14.36
2022-09-03T05:02:12.002Z,14.33
2022-09-03T05:03:11.963Z,14.30
2022-09-03T05:04:11.918Z,14.29
2022-09-03T05:05:11.943Z,14.29
2022-09-03T05:06:11.885Z,14.29
2022-09-03T05:07:11.882Z,14.28
2022-09-03T05:08:11.882Z,14.26
2022-09-03T05:09:11.857Z,14.26
2022-09-03T05:10:11.848Z,14.26
2022-09-03T05:11:11.864Z,14.26
2022-09-03T05:12:11.826Z,14.26
2022-09-03T05:13:11.844Z,14.28
2022-09-03T05:14:11.857Z,14.30
2022-09-03T05:15:11.813Z,14.32
2022-09-03T05:16:11.857Z,14.33
2022-09-03T05:17:11.785Z,14.35
2022-09-03T05:18:11.747Z,14.40
2022-09-03T05:19:11.748Z,14.40
2022-09-03T05:20:11.762Z,14.44
2022-09-03T05:21:11.728Z,14.45
2022-09-03T05:22:11.738Z,14.47
2022-09-03T05:23:11.687Z,14.48
2022-09-03T05:24:11.688Z,14.48
2022-09-03T05:25:11.725Z,14.51
2022-09-03T05:26:11.670Z,14.51
2022-09-03T05:27:11.657Z,14.53
2022-09-03T05:28:11.668Z,14.55
2022-09-03T05:29:11.662Z,14.59
2022-09-03T05:30:11.631Z,14.63
2022-09-03T05:31:11.674Z,14.63
2022-09-03T05:32:11.612Z,14.65
2022-09-03T05:33:11.611Z,14.63
2022-09-03T05:34:16.649Z,14.68
2022-09-03T05:35:12.570Z,14.70
2022-09-03T05:36:11.554Z,14.77
2022-09-03T05:37:11.581Z,14.78
2022-09-03T05:38:11.584Z,14.78
2022-09-03T05:39:11.529Z,14.84
2022-09-03T05:40:11.668Z,14.85
2022-09-03T05:41:11.515Z,14.89
2022-09-03T05:42:11.579Z,14.94
2022-09-03T05:43:11.563Z,14.96
2022-09-03T05:44:11.454Z,14.97
2022-09-03T05:45:11.459Z,14.99
2022-09-03T05:46:11.598Z,15.00
2022-09-03T05:47:11.477Z,15.00
2022-09-03T05:48:11.466Z,15.00
2022-09-03T05:49:11.406Z,14.99
2022-09-03T05:50:11.410Z,15.02
2022-09-03T05:51:11.429Z,15.03
2022-09-03T05:52:11.377Z,15.04
2022-09-03T05:53:11.481Z,15.06
2022-09-03T05:54:11.394Z,15.09
2022-09-03T05:55:13.452Z,15.10
2022-09-03T05:56:11.366Z,15.10
2022-09-03T05:57:11.356Z,15.14
2022-09-03T05:58:11.308Z,15.15
2022-09-03T05:59:11.317Z,15.17
2022-09-03T06:00:11.297Z,15.18
2022-09-03T06:01:11.312Z,15.22
2022-09-03T06:02:12.144Z,15.25
2022-09-03T06:03:11.372Z,15.28
2022-09-03T06:04:11.422Z,15.33
2022-09-03T06:05:11.240Z,15.35
2022-09-03T06:06:11.216Z,15.40
2022-09-03T06:07:11.227Z,15.42
2022-09-03T06:08:11.242Z,15.44
2022-09-03T06:09:11.193Z,15.49
2022-09-03T06:10:20.308Z,15.54
2022-09-03T06:11:12.188Z,15.57
2022-09-03T06:12:11.154Z,15.61
2022-09-03T06:13:11.143Z,15.65
2022-09-03T06:14:11.106Z,15.70
2022-09-03T06:15:11.181Z,15.76
2022-09-03T06:16:11.191Z,15.79
2022-09-03T06:17:11.095Z,15.84
2022-09-03T06:18:11.092Z,15.90
2022-09-03T06:19:11.078Z,15.94
2022-09-03T06:20:11.063Z,15.97
2022-09-03T06:21:11.102Z,16.01
2022-09-03T06:22:11.030Z,16.05
2022-09-03T06:23:11.044Z,16.12
2022-09-03T06:24:11.047Z,16.15
2022-09-03T06:25:11.157Z,16.21
2022-09-03T06:26:11.001Z,16.24
2022-09-03T06:27:11.065Z,16.32
2022-09-03T06:28:10.986Z,16.35
2022-09-03T06:29:10.962Z,16.39
2022-09-03T06:30:10.949Z,16.46
2022-09-03T06:31:11.033Z,16.51
2022-09-03T06:32:10.978Z,16.56
2022-09-03T06:33:10.972Z,16.60
2022-09-03T06:34:10.909Z,16.65
2022-09-03T06:35:10.941Z,16.71
2022-09-03T06:36:10.882Z,16.76
2022-09-03T06:37:10.900Z,16.79
2022-09-03T06:38:10.874Z,16.86
2022-09-03T06:39:10.893Z,16.90
2022-09-03T06:40:10.851Z,16.96
2022-09-03T06:41:10.834Z,17.02
2022-09-03T06:42:10.831Z,17.06
2022-09-03T06:43:10.804Z,17.11
2022-09-03T06:44:10.794Z,17.15
2022-09-03T06:45:10.843Z,17.20
2022-09-03T06:46:10.796Z,17.26
2022-09-03T06:47:10.769Z,17.29
2022-09-03T06:48:10.833Z,17.34
2022-09-03T06:49:10.744Z,17.39
2022-09-03T06:50:10.743Z,17.44
2022-09-03T06:51:10.735Z,17.49
2022-09-03T06:52:10.708Z,17.54
2022-09-03T06:53:10.676Z,17.59
2022-09-03T06:54:10.684Z,17.65
2022-09-03T06:55:10.723Z,17.70
2022-09-03T06:56:11.608Z,17.76
2022-09-03T06:57:10.675Z,17.82
2022-09-03T06:58:10.636Z,17.86
2022-09-03T06:59:10.628Z,17.92
2022-09-03T07:00:10.663Z,17.97
2022-09-03T07:01:11.705Z,18.01
2022-09-03T07:02:10.768Z,18.07
2022-09-03T07:03:10.601Z,18.11
2022-09-03T07:04:10.560Z,18.18
2022-09-03T07:05:10.563Z,18.23
2022-09-03T07:06:10.660Z,18.28
2022-09-03T07:07:10.559Z,18.34
2022-09-03T07:08:10.524Z,18.38
2022-09-03T07:09:10.515Z,18.44
2022-09-03T07:10:10.596Z,18.49
2022-09-03T07:11:10.485Z,18.55
2022-09-03T07:12:10.594Z,18.60
2022-09-03T07:13:10.482Z,18.66
2022-09-03T07:14:10.571Z,18.73
2022-09-03T07:15:10.540Z,18.78
2022-09-03T07:16:10.477Z,18.81
2022-09-03T07:17:10.434Z,18.86
2022-09-03T07:18:10.447Z,18.93
2022-09-03T07:19:10.404Z,18.99
2022-09-03T07:20:10.393Z,19.04
2022-09-03T07:21:10.382Z,19.09
2022-09-03T07:22:10.376Z,19.14
2022-09-03T07:23:10.360Z,19.19
2022-09-03T07:24:10.408Z,19.24
2022-09-03T07:25:10.340Z,19.30
2022-09-03T07:26:10.322Z,19.34
2022-09-03T07:27:14.385Z,19.41
2022-09-03T07:28:10.299Z,19.47
2022-09-03T07:29:10.335Z,19.54
2022-09-03T07:30:10.306Z,19.63
2022-09-03T07:31:10.277Z,19.69
2022-09-03T07:32:10.315Z,19.77
2022-09-03T07:33:10.238Z,19.86
2022-09-03T07:34:10.536Z,19.94
2022-09-03T07:35:10.237Z,20.02
2022-09-03T07:36:10.241Z,20.09
2022-09-03T07:37:10.230Z,20.14
2022-09-03T07:38:10.264Z,20.21
2022-09-03T07:39:10.196Z,20.29
2022-09-03T07:40:10.212Z,20.34
2022-09-03T07:41:10.150Z,20.41
2022-09-03T07:42:10.176Z,20.47
2022-09-03T07:43:10.122Z,20.51
2022-09-03T07:44:10.119Z,20.58
2022-09-03T07:45:10.131Z,20.60
2022-09-03T07:46:10.169Z,20.66
2022-09-03T07:47:10.095Z,20.70
2022-09-03T07:48:10.089Z,20.75
2022-09-03T07:49:10.063Z,20.80
2022-09-03T07:50:10.073Z,20.84
2022-09-03T07:51:10.063Z,20.88
2022-09-03T07:52:12.284Z,20.92
2022-09-03T07:53:11.044Z,20.95
2022-09-03T07:54:10.072Z,20.96
2022-09-03T07:55:10.014Z,21.00
2022-09-03T07:56:10.026Z,21.03
2022-09-03T07:57:09.979Z,21.09
2022-09-03T07:58:09.969Z,21.14
2022-09-03T07:59:09.949Z,21.17
2022-09-03T08:00:09.949Z,21.20
2022-09-03T08:01:11.401Z,21.24
2022-09-03T08:02:10.157Z,21.29
2022-09-03T08:03:09.896Z,21.33
2022-09-03T08:04:10.159Z,21.37
2022-09-03T08:05:09.891Z,21.37
2022-09-03T08:06:09.878Z,21.42
2022-09-03T08:07:09.883Z,21.45
2022-09-03T08:08:09.841Z,21.50
2022-09-03T08:09:10.868Z,21.52
2022-09-03T08:10:09.854Z,21.54
2022-09-03T08:11:09.871Z,21.60
2022-09-03T08:12:10.041Z,21.61
2022-09-03T08:13:09.795Z,21.62
2022-09-03T08:14:09.783Z,21.66
2022-09-03T08:15:09.766Z,21.66
2022-09-03T08:16:09.841Z,21.67
2022-09-03T08:17:09.746Z,21.69
2022-09-03T08:18:09.749Z,21.72
2022-09-03T08:19:09.724Z,21.75
2022-09-03T08:20:09.763Z,21.77
2022-09-03T08:21:09.714Z,21.83
2022-09-03T08:22:09.743Z,21.89
2022-09-03T08:23:09.670Z,21.93
2022-09-03T08:24:09.667Z,21.95
2022-09-03T08:25:11.841Z,21.95
2022-09-03T08:26:09.696Z,21.96
2022-09-03T08:27:09.650Z,21.99
2022-09-03T08:28:09.664Z,22.02
2022-09-03T08:29:09.636Z,22.06
2022-09-03T08:30:09.610Z,22.10
2022-09-03T08:31:09.614Z,22.13
2022-09-03T08:32:09.604Z,22.17
2022-09-03T08:33:09.647Z,22.18
2022-09-03T08:34:09.569Z,22.23
2022-09-03T08:35:09.570Z,22.26
2022-09-03T08:36:09.543Z,22.28
2022-09-03T08:37:09.533Z,22.30
2022-09-03T08:38:10.865Z,22.32
2022-09-03T08:39:10.198Z,22.33
2022-09-03T08:40:09.492Z,22.33
2022-09-03T08:41:09.493Z,22.35
2022-09-03T08:42:09.515Z,22.36
2022-09-03T08:43:09.471Z,22.39
2022-09-03T08:44:09.470Z,22.41
2022-09-03T08:45:09.451Z,22.45
2022-09-03T08:46:09.498Z,22.47
2022-09-03T08:47:09.421Z,22.51
2022-09-03T08:48:09.426Z,22.55
2022-09-03T08:49:09.425Z,22.59
2022-09-03T08:50:09.389Z,22.60
2022-09-03T08:51:09.375Z,22.60
2022-09-03T08:52:09.382Z,22.63
2022-09-03T08:53:09.349Z,22.65
2022-09-03T08:54:09.347Z,22.66
2022-09-03T08:55:09.355Z,22.69
2022-09-03T08:56:09.365Z,22.70
2022-09-03T08:57:09.309Z,22.70
2022-09-03T08:58:09.399Z,22.73
2022-09-03T08:59:09.282Z,22.76
2022-09-03T09:00:10.227Z,22.81
2022-09-03T09:01:09.252Z,22.85
2022-09-03T09:02:09.391Z,22.88
2022-09-03T09:03:09.294Z,22.90
2022-09-03T09:04:09.276Z,22.93
2022-09-03T09:05:13.645Z,22.93
2022-09-03T09:06:10.260Z,22.94
2022-09-03T09:07:09.191Z,22.96
2022-09-03T09:08:09.297Z,22.98
2022-09-03T09:09:09.241Z,22.99
2022-09-03T09:10:09.162Z,22.99
2022-09-03T09:11:09.185Z,23.00
2022-09-03T09:12:09.143Z,23.02
2022-09-03T09:13:09.185Z,23.03
2022-09-03T09:14:09.107Z,23.00
2022-09-03T09:15:10.047Z,23.00
2022-09-03T09:16:09.169Z,22.99
2022-09-03T09:17:09.116Z,22.98
2022-09-03T09:18:09.083Z,22.98
2022-09-03T09:19:09.065Z,22.99
2022-09-03T09:20:09.085Z,23.02
2022-09-03T09:21:09.042Z,23.06
2022-09-03T09:22:09.077Z,23.10
2022-09-03T09:23:09.333Z,23.18
2022-09-03T09:24:09.044Z,23.23
2022-09-03T09:25:09.006Z,23.23
2022-09-03T09:26:09.000Z,23.25
2022-09-03T09:27:12.833Z,23.28
2022-09-03T09:28:10.031Z,23.31
2022-09-03T09:29:09.508Z,23.28
2022-09-03T09:30:08.944Z,23.27
2022-09-03T09:31:09.001Z,23.23
2022-09-03T09:32:08.937Z,23.15
2022-09-03T09:33:08.900Z,23.08
2022-09-03T09:34:08.941Z,23.05
2022-09-03T09:35:08.916Z,22.99
2022-09-03T09:36:08.901Z,22.96
2022-09-03T09:37:08.863Z,22.93
2022-09-03T09:38:08.854Z,22.91
2022-09-03T09:39:08.825Z,22.91
2022-09-03T09:40:09.043Z,22.90
2022-09-03T09:41:08.808Z,22.90
2022-09-03T09:42:08.841Z,22.88
2022-09-03T09:43:08.786Z,22.87
2022-09-03T09:44:08.823Z,22.87
2022-09-03T09:45:08.809Z,22.87
2022-09-03T09:46:08.774Z,22.87
2022-09-03T09:47:08.745Z,22.87
2022-09-03T09:48:08.736Z,22.88
2022-09-03T09:49:08.725Z,22.91
2022-09-03T09:50:08.749Z,22.96
2022-09-03T09:51:09.714Z,22.98
2022-09-03T09:52:08.691Z,23.03
2022-09-03T09:53:08.703Z,23.05
2022-09-03T09:54:08.683Z,23.08
2022-09-03T09:55:08.742Z,23.06
2022-09-03T09:56:08.652Z,23.08
2022-09-03T09:57:08.642Z,23.08
2022-09-03T09:58:13.447Z,23.12
2022-09-03T09:59:09.609Z,23.15
2022-09-03T10:00:08.650Z,23.17
2022-09-03T10:01:08.625Z,23.20
2022-09-03T10:02:08.595Z,23.23
2022-09-03T10:03:08.626Z,23.27
2022-09-03T10:04:08.577Z,23.32
2022-09-03T10:05:08.542Z,23.37
2022-09-03T10:06:08.572Z,23.40
2022-09-03T10:07:08.520Z,23.41
2022-09-03T10:08:08.532Z,23.43
2022-09-03T10:09:08.542Z,23.47
2022-09-03T10:10:08.493Z,23.51
2022-09-03T10:11:08.517Z,23.51
2022-09-03T10:12:08.482Z,23.55
2022-09-03T10:13:08.445Z,23.56
2022-09-03T10:14:08.461Z,23.61
2022-09-03T10:15:08.463Z,23.65
2022-09-03T10:16:08.474Z,23.69
2022-09-03T10:17:08.424Z,23.76
2022-09-03T10:18:08.405Z,23.78
2022-09-03T10:19:08.389Z,23.84
2022-09-03T10:20:08.399Z,23.87
2022-09-03T10:21:08.359Z,23.91
2022-09-03T10:22:08.371Z,23.91
2022-09-03T10:23:08.371Z,23.91
2022-09-03T10:24:08.420Z,23.93
2022-09-03T10:25:08.378Z,23.95
2022-09-03T10:26:08.400Z,23.98
2022-09-03T10:27:08.300Z,23.99
2022-09-03T10:28:08.290Z,24.03
2022-09-03T10:29:08.276Z,24.08
2022-09-03T10:30:08.309Z,24.08
2022-09-03T10:31:08.341Z,24.11
2022-09-03T10:32:08.249Z,24.16
2022-09-03T10:33:08.251Z,24.21
2022-09-03T10:34:08.235Z,24.26
2022-09-03T10:35:08.211Z,24.29
2022-09-03T10:36:08.200Z,24.33
2022-09-03T10:37:08.182Z,24.38
2022-09-03T10:38:08.251Z,24.39
2022-09-03T10:39:08.166Z,24.43
2022-09-03T10:40:08.245Z,24.47
2022-09-03T10:41:08.160Z,24.50
2022-09-03T10:42:08.123Z,24.53
2022-09-03T10:43:08.138Z,24.57
2022-09-03T10:44:08.135Z,24.60
2022-09-03T10:45:08.107Z,24.61
2022-09-03T10:46:08.108Z,24.60
2022-09-03T10:47:08.059Z,24.61
2022-09-03T10:48:08.096Z,24.61
2022-09-03T10:49:08.041Z,24.58
2022-09-03T10:50:08.029Z,24.55
2022-09-03T10:51:08.020Z,24.54
2022-09-03T10:52:08.023Z,24.54
2022-09-03T10:53:08.002Z,24.57
2022-09-03T10:54:08.008Z,24.58
2022-09-03T10:55:07.970Z,24.60
2022-09-03T10:56:07.983Z,24.60
2022-09-03T10:57:08.008Z,24.61
2022-09-03T10:58:07.944Z,24.63
2022-09-03T10:59:07.921Z,24.60
2022-09-03T11:00:07.920Z,24.57
2022-09-03T11:01:07.996Z,24.55
2022-09-03T11:02:07.901Z,24.54
2022-09-03T11:03:08.028Z,24.53
2022-09-03T11:04:07.872Z,24.54
2022-09-03T11:05:07.872Z,24.54
2022-09-03T11:06:07.866Z,24.54
2022-09-03T11:07:07.859Z,24.54
2022-09-03T11:08:07.830Z,24.53
2022-09-03T11:09:07.867Z,24.54
2022-09-03T11:10:07.804Z,24.55
2022-09-03T11:11:07.807Z,24.57
2022-09-03T11:12:07.869Z,24.60
2022-09-03T11:13:08.728Z,24.65
2022-09-03T11:14:07.769Z,24.70
2022-09-03T11:15:07.764Z,24.74
2022-09-03T11:16:07.826Z,24.76
2022-09-03T11:17:07.749Z,24.80
2022-09-03T11:18:07.749Z,24.81
2022-09-03T11:19:07.706Z,24.85
2022-09-03T11:20:07.690Z,24.86
2022-09-03T11:21:11.939Z,24.85
2022-09-03T11:22:07.679Z,24.86
2022-09-03T11:23:07.750Z,24.86
2022-09-03T11:24:07.664Z,24.88
2022-09-03T11:25:07.646Z,24.88
2022-09-03T11:26:09.214Z,24.89
2022-09-03T11:27:07.641Z,24.86
2022-09-03T11:28:07.624Z,24.86
2022-09-03T11:29:07.633Z,24.85
2022-09-03T11:30:07.673Z,24.86
2022-09-03T11:31:07.693Z,24.89
2022-09-03T11:32:07.562Z,24.89
2022-09-03T11:33:07.542Z,24.91
2022-09-03T11:34:08.326Z,24.91
2022-09-03T11:35:07.536Z,24.92
2022-09-03T11:36:07.557Z,24.95
2022-09-03T11:37:07.511Z,24.99
2022-09-03T11:38:07.497Z,25.06
2022-09-03T11:39:07.481Z,25.10
2022-09-03T11:40:07.560Z,25.14
2022-09-03T11:41:07.457Z,25.17
2022-09-03T11:42:07.459Z,25.18
2022-09-03T11:43:07.457Z,25.18
2022-09-03T11:44:07.451Z,25.22
2022-09-03T11:45:07.418Z,25.22
2022-09-03T11:46:07.500Z,25.21
2022-09-03T11:47:07.402Z,25.17
2022-09-03T11:48:07.409Z,25.17
2022-09-03T11:49:07.410Z,25.17
2022-09-03T11:50:07.361Z,25.18
2022-09-03T11:51:07.372Z,25.18
2022-09-03T11:52:07.344Z,25.16
2022-09-03T11:53:07.334Z,25.10
2022-09-03T11:54:07.349Z,25.11
2022-09-03T11:55:07.348Z,25.11
2022-09-03T11:56:07.333Z,25.13
2022-09-03T11:57:07.299Z,25.13
2022-09-03T11:58:07.277Z,25.16
2022-09-03T11:59:07.281Z,25.18
2022-09-03T12:00:07.295Z,25.17
2022-09-03T12:01:07.270Z,25.18
2022-09-03T12:02:07.297Z,25.17
2022-09-03T12:03:07.237Z,25.14
2022-09-03T12:04:07.259Z,25.14
2022-09-03T12:05:07.237Z,25.17
2022-09-03T12:06:07.205Z,25.18
2022-09-03T12:07:07.179Z,25.18
2022-09-03T12:08:09.079Z,25.23
2022-09-03T12:09:07.203Z,25.26
2022-09-03T12:10:07.178Z,25.31
2022-09-03T12:11:07.148Z,25.33
2022-09-03T12:12:07.130Z,25.36
2022-09-03T12:13:07.111Z,25.36
2022-09-03T12:14:11.644Z,25.40
2022-09-03T12:15:08.131Z,25.40
2022-09-03T12:16:07.114Z,25.40
2022-09-03T12:17:07.072Z,25.40
2022-09-03T12:18:07.079Z,25.41
2022-09-03T12:19:07.060Z,25.44
2022-09-03T12:20:08.039Z,25.46
2022-09-03T12:21:07.090Z,25.51
2022-09-03T12:22:07.095Z,25.60
2022-09-03T12:23:07.037Z,25.69
2022-09-03T12:24:07.012Z,25.84
2022-09-03T12:25:06.984Z,25.96
2022-09-03T12:26:07.918Z,26.09
2022-09-03T12:27:07.006Z,26.23
2022-09-03T12:28:06.961Z,26.38
2022-09-03T12:29:06.936Z,26.55
2022-09-03T12:30:07.978Z,26.66
2022-09-03T12:31:06.976Z,26.83
2022-09-03T12:32:06.916Z,27.07
2022-09-03T12:33:06.958Z,27.26
2022-09-03T12:34:06.901Z,27.51
2022-09-03T12:35:06.874Z,27.73
2022-09-03T12:36:06.900Z,28.00
2022-09-03T12:37:06.858Z,28.27
2022-09-03T12:38:09.344Z,28.57
2022-09-03T12:39:14.067Z,28.85
2022-09-03T12:40:08.868Z,29.10
2022-09-03T12:41:24.171Z,29.34
2022-09-03T12:42:07.810Z,29.50
2022-09-03T12:44:07.773Z,29.47
2022-09-03T12:45:06.762Z,29.61
2022-09-03T12:46:10.596Z,29.79
2022-09-03T12:48:07.795Z,29.98
2022-09-03T12:50:07.734Z,29.98
2022-09-03T12:52:07.701Z,29.73
2022-09-03T12:53:06.729Z,29.54
2022-09-03T12:54:06.729Z,29.23
2022-09-03T12:55:06.646Z,28.94
2022-09-03T12:56:06.648Z,28.74